sensor_id;sensor_type;location;lat;lon;timestamp;P1;durP1;ratioP1;P2;durP2;ratioP2
70122;SDS011;57489;37.404;24.920;2023-02-13T00:02:01;8.37;;;2.83;;
70122;SDS011;57489;37.404;24.920;2023-02-13T00:07:02;6.97;;;2.93;;
70122;SDS011;57489;37.404;24.920;2023-02-13T00:12:03;7.77;;;3.57;;
70122;SDS011;57489;37.404;24.920;2023-02-13T00:17:05;6.57;;;3.22;;
70122;SDS011;57489;37.404;24.920;2023-02-13T00:22:05;6.72;;;2.97;;
70122;SDS011;57489;37.404;24.920;2023-02-13T00:27:06;5.80;;;3.03;;
70122;SDS011;57489;37.404;24.920;2023-02-13T00:32:06;6.33;;;2.97;;
70122;SDS011;57489;37.404;24.920;2023-02-13T00:37:07;16.40;;;3.47;;
70122;SDS011;57489;37.404;24.920;2023-02-13T00:42:08;7.03;;;3.60;;
70122;SDS011;57489;37.404;24.920;2023-02-13T00:47:08;7.80;;;3.10;;
70122;SDS011;57489;37.404;24.920;2023-02-13T00:52:09;8.43;;;3.70;;
70122;SDS011;57489;37.404;24.920;2023-02-13T00:57:09;7.93;;;3.00;;
70122;SDS011;57489;37.404;24.920;2023-02-13T01:02:10;8.17;;;3.43;;
70122;SDS011;57489;37.404;24.920;2023-02-13T01:07:10;7.00;;;3.30;;
70122;SDS011;57489;37.404;24.920;2023-02-13T01:12:10;7.20;;;2.87;;
70122;SDS011;57489;37.404;24.920;2023-02-13T01:17:11;9.13;;;2.83;;
70122;SDS011;57489;37.404;24.920;2023-02-13T01:22:11;8.17;;;3.43;;
70122;SDS011;57489;37.404;24.920;2023-02-13T01:27:12;8.10;;;3.20;;
70122;SDS011;57489;37.404;24.920;2023-02-13T01:32:12;6.13;;;3.13;;
70122;SDS011;57489;37.404;24.920;2023-02-13T01:37:13;7.23;;;4.17;;
70122;SDS011;57489;37.404;24.920;2023-02-13T01:42:21;8.13;;;3.43;;
70122;SDS011;57489;37.404;24.920;2023-02-13T01:52:47;6.80;;;3.37;;
70122;SDS011;57489;37.404;24.920;2023-02-13T01:58:01;7.93;;;3.42;;
70122;SDS011;57489;37.404;24.920;2023-02-13T02:03:09;7.43;;;3.35;;
70122;SDS011;57489;37.404;24.920;2023-02-13T02:08:13;7.33;;;3.40;;
70122;SDS011;57489;37.404;24.920;2023-02-13T02:13:16;8.55;;;3.85;;
70122;SDS011;57489;37.404;24.920;2023-02-13T02:18:19;6.75;;;3.42;;
70122;SDS011;57489;37.404;24.920;2023-02-13T02:23:29;6.53;;;3.70;;
70122;SDS011;57489;37.404;24.920;2023-02-13T02:35:03;7.23;;;3.70;;
70122;SDS011;57489;37.404;24.920;2023-02-13T02:45:07;7.22;;;4.22;;
70122;SDS011;57489;37.404;24.920;2023-02-13T03:01:02;7.63;;;4.10;;
70122;SDS011;57489;37.404;24.920;2023-02-13T03:06:17;7.23;;;3.43;;
70122;SDS011;57489;37.404;24.920;2023-02-13T03:11:23;6.83;;;3.80;;
70122;SDS011;57489;37.404;24.920;2023-02-13T03:16:24;6.60;;;3.00;;
70122;SDS011;57489;37.404;24.920;2023-02-13T03:21:46;6.33;;;3.27;;
70122;SDS011;57489;37.404;24.920;2023-02-13T03:26:58;7.53;;;3.25;;
70122;SDS011;57489;37.404;24.920;2023-02-13T03:37:29;6.18;;;3.03;;
70122;SDS011;57489;37.404;24.920;2023-02-13T03:42:45;5.85;;;2.88;;
70122;SDS011;57489;37.404;24.920;2023-02-13T03:47:52;7.67;;;2.87;;
70122;SDS011;57489;37.404;24.920;2023-02-13T03:52:58;7.28;;;3.85;;
70122;SDS011;57489;37.404;24.920;2023-02-13T03:58:07;8.70;;;4.20;;
70122;SDS011;57489;37.404;24.920;2023-02-13T04:08:34;6.65;;;2.88;;
70122;SDS011;57489;37.404;24.920;2023-02-13T04:13:35;5.97;;;3.27;;
70122;SDS011;57489;37.404;24.920;2023-02-13T04:18:49;6.82;;;2.95;;
70122;SDS011;57489;37.404;24.920;2023-02-13T04:23:51;8.13;;;4.00;;
70122;SDS011;57489;37.404;24.920;2023-02-13T04:28:52;7.60;;;3.87;;
70122;SDS011;57489;37.404;24.920;2023-02-13T04:33:52;7.67;;;3.67;;
70122;SDS011;57489;37.404;24.920;2023-02-13T04:38:53;6.32;;;2.85;;
70122;SDS011;57489;37.404;24.920;2023-02-13T04:43:53;8.60;;;3.70;;
70122;SDS011;57489;37.404;24.920;2023-02-13T04:48:53;8.17;;;3.47;;
70122;SDS011;57489;37.404;24.920;2023-02-13T04:53:54;6.40;;;3.17;;
70122;SDS011;57489;37.404;24.920;2023-02-13T04:58:54;6.70;;;3.57;;
70122;SDS011;57489;37.404;24.920;2023-02-13T05:03:55;7.73;;;3.70;;
70122;SDS011;57489;37.404;24.920;2023-02-13T05:08:55;7.53;;;3.40;;
70122;SDS011;57489;37.404;24.920;2023-02-13T05:13:56;8.10;;;3.60;;
70122;SDS011;57489;37.404;24.920;2023-02-13T05:18:56;7.30;;;3.40;;
70122;SDS011;57489;37.404;24.920;2023-02-13T05:23:57;6.63;;;3.23;;
70122;SDS011;57489;37.404;24.920;2023-02-13T05:28:57;7.60;;;3.63;;
70122;SDS011;57489;37.404;24.920;2023-02-13T05:33:57;10.00;;;4.17;;
70122;SDS011;57489;37.404;24.920;2023-02-13T05:38:58;11.60;;;4.47;;
70122;SDS011;57489;37.404;24.920;2023-02-13T05:43:59;11.43;;;4.03;;
70122;SDS011;57489;37.404;24.920;2023-02-13T05:49:00;9.00;;;3.97;;
70122;SDS011;57489;37.404;24.920;2023-02-13T05:54:00;10.37;;;4.47;;
70122;SDS011;57489;37.404;24.920;2023-02-13T05:59:01;14.63;;;4.33;;
70122;SDS011;57489;37.404;24.920;2023-02-13T06:04:01;15.40;;;4.60;;
70122;SDS011;57489;37.404;24.920;2023-02-13T06:09:02;10.05;;;3.53;;
70122;SDS011;57489;37.404;24.920;2023-02-13T06:14:03;10.10;;;4.07;;
70122;SDS011;57489;37.404;24.920;2023-02-13T06:19:03;9.37;;;3.37;;
70122;SDS011;57489;37.404;24.920;2023-02-13T06:24:04;10.07;;;3.70;;
70122;SDS011;57489;37.404;24.920;2023-02-13T06:29:05;10.63;;;4.00;;
70122;SDS011;57489;37.404;24.920;2023-02-13T06:34:06;11.23;;;4.43;;
70122;SDS011;57489;37.404;24.920;2023-02-13T06:39:08;12.17;;;4.23;;
70122;SDS011;57489;37.404;24.920;2023-02-13T06:44:09;11.60;;;3.75;;
70122;SDS011;57489;37.404;24.920;2023-02-13T06:49:09;14.13;;;4.50;;
70122;SDS011;57489;37.404;24.920;2023-02-13T06:54:10;7.83;;;3.57;;
70122;SDS011;57489;37.404;24.920;2023-02-13T06:59:10;10.53;;;3.93;;
70122;SDS011;57489;37.404;24.920;2023-02-13T07:04:10;7.83;;;3.20;;
70122;SDS011;57489;37.404;24.920;2023-02-13T07:09:11;9.87;;;4.13;;
70122;SDS011;57489;37.404;24.920;2023-02-13T07:14:11;13.30;;;3.47;;
70122;SDS011;57489;37.404;24.920;2023-02-13T07:19:12;10.93;;;3.93;;
70122;SDS011;57489;37.404;24.920;2023-02-13T07:24:12;9.02;;;3.20;;
70122;SDS011;57489;37.404;24.920;2023-02-13T07:29:13;7.67;;;3.07;;
70122;SDS011;57489;37.404;24.920;2023-02-13T07:34:13;9.97;;;3.20;;
70122;SDS011;57489;37.404;24.920;2023-02-13T07:39:14;6.93;;;2.97;;
70122;SDS011;57489;37.404;24.920;2023-02-13T07:44:14;8.43;;;3.33;;
70122;SDS011;57489;37.404;24.920;2023-02-13T07:49:15;7.53;;;2.63;;
70122;SDS011;57489;37.404;24.920;2023-02-13T07:54:15;6.83;;;2.90;;
70122;SDS011;57489;37.404;24.920;2023-02-13T07:59:15;5.60;;;2.60;;
70122;SDS011;57489;37.404;24.920;2023-02-13T08:04:16;7.87;;;2.50;;
70122;SDS011;57489;37.404;24.920;2023-02-13T08:09:18;7.00;;;2.83;;
70122;SDS011;57489;37.404;24.920;2023-02-13T08:14:20;8.57;;;2.95;;
70122;SDS011;57489;37.404;24.920;2023-02-13T08:19:21;8.23;;;2.28;;
70122;SDS011;57489;37.404;24.920;2023-02-13T08:24:21;10.37;;;3.00;;
70122;SDS011;57489;37.404;24.920;2023-02-13T08:29:22;7.83;;;2.30;;
70122;SDS011;57489;37.404;24.920;2023-02-13T08:34:23;5.97;;;2.40;;
70122;SDS011;57489;37.404;24.920;2023-02-13T08:39:23;6.53;;;2.75;;
70122;SDS011;57489;37.404;24.920;2023-02-13T08:44:24;6.73;;;2.60;;
70122;SDS011;57489;37.404;24.920;2023-02-13T08:49:24;5.43;;;2.80;;
70122;SDS011;57489;37.404;24.920;2023-02-13T08:54:25;7.67;;;2.60;;
70122;SDS011;57489;37.404;24.920;2023-02-13T08:59:26;6.25;;;2.72;;
70122;SDS011;57489;37.404;24.920;2023-02-13T09:04:26;6.63;;;2.73;;
70122;SDS011;57489;37.404;24.920;2023-02-13T09:09:27;6.30;;;3.10;;
70122;SDS011;57489;37.404;24.920;2023-02-13T09:14:27;5.70;;;2.40;;
70122;SDS011;57489;37.404;24.920;2023-02-13T09:19:28;6.70;;;2.57;;
70122;SDS011;57489;37.404;24.920;2023-02-13T09:24:28;5.23;;;2.20;;
70122;SDS011;57489;37.404;24.920;2023-02-13T09:29:29;9.00;;;3.30;;
70122;SDS011;57489;37.404;24.920;2023-02-13T09:34:29;6.60;;;2.63;;
70122;SDS011;57489;37.404;24.920;2023-02-13T09:39:30;6.57;;;2.73;;
70122;SDS011;57489;37.404;24.920;2023-02-13T09:44:37;5.20;;;2.43;;
70122;SDS011;57489;37.404;24.920;2023-02-13T09:49:49;5.87;;;3.00;;
70122;SDS011;57489;37.404;24.920;2023-02-13T09:54:53;4.77;;;1.97;;
70122;SDS011;57489;37.404;24.920;2023-02-13T10:10:24;5.83;;;2.67;;
70122;SDS011;57489;37.404;24.920;2023-02-13T10:15:41;8.38;;;3.03;;
70122;SDS011;57489;37.404;24.920;2023-02-13T10:20:50;5.27;;;2.43;;
70122;SDS011;57489;37.404;24.920;2023-02-13T10:31:02;5.72;;;2.67;;
70122;SDS011;57489;37.404;24.920;2023-02-13T10:46:22;5.88;;;3.13;;
70122;SDS011;57489;37.404;24.920;2023-02-13T10:51:31;5.53;;;2.42;;
70122;SDS011;57489;37.404;24.920;2023-02-13T11:12:44;5.70;;;2.90;;
70122;SDS011;57489;37.404;24.920;2023-02-13T11:17:30;5.55;;;2.78;;
70122;SDS011;57489;37.404;24.920;2023-02-13T11:22:37;6.60;;;2.30;;
70122;SDS011;57489;37.404;24.920;2023-02-13T11:27:39;6.40;;;2.33;;
70122;SDS011;57489;37.404;24.920;2023-02-13T11:32:39;6.47;;;2.70;;
70122;SDS011;57489;37.404;24.920;2023-02-13T11:37:40;5.80;;;2.37;;
70122;SDS011;57489;37.404;24.920;2023-02-13T11:42:41;8.73;;;2.13;;
70122;SDS011;57489;37.404;24.920;2023-02-13T11:47:42;7.17;;;2.33;;
70122;SDS011;57489;37.404;24.920;2023-02-13T11:52:42;4.73;;;2.37;;
70122;SDS011;57489;37.404;24.920;2023-02-13T11:57:58;5.60;;;2.50;;
70122;SDS011;57489;37.404;24.920;2023-02-13T12:08:21;5.07;;;2.13;;
70122;SDS011;57489;37.404;24.920;2023-02-13T12:13:26;4.70;;;2.27;;
70122;SDS011;57489;37.404;24.920;2023-02-13T12:18:37;4.70;;;2.38;;
70122;SDS011;57489;37.404;24.920;2023-02-13T12:23:47;6.20;;;2.42;;
70122;SDS011;57489;37.404;24.920;2023-02-13T12:34:29;5.32;;;2.55;;
70122;SDS011;57489;37.404;24.920;2023-02-13T12:45:31;5.90;;;2.10;;
70122;SDS011;57489;37.404;24.920;2023-02-13T12:50:39;5.35;;;2.25;;
70122;SDS011;57489;37.404;24.920;2023-02-13T13:22:49;7.50;;;1.95;;
70122;SDS011;57489;37.404;24.920;2023-02-13T13:28:25;7.03;;;2.10;;
70122;SDS011;57489;37.404;24.920;2023-02-13T13:33:30;4.17;;;1.80;;
70122;SDS011;57489;37.404;24.920;2023-02-13T13:49:16;4.37;;;2.00;;
70122;SDS011;57489;37.404;24.920;2023-02-13T13:54:22;5.57;;;2.10;;
70122;SDS011;57489;37.404;24.920;2023-02-13T14:04:37;7.77;;;2.43;;
70122;SDS011;57489;37.404;24.920;2023-02-13T14:09:39;5.13;;;2.08;;
70122;SDS011;57489;37.404;24.920;2023-02-13T14:19:45;5.20;;;2.07;;
70122;SDS011;57489;37.404;24.920;2023-02-13T14:24:55;6.85;;;2.00;;
70122;SDS011;57489;37.404;24.920;2023-02-13T14:29:57;3.63;;;1.70;;
70122;SDS011;57489;37.404;24.920;2023-02-13T14:34:59;5.77;;;1.70;;
70122;SDS011;57489;37.404;24.920;2023-02-13T14:40:46;4.40;;;1.97;;
70122;SDS011;57489;37.404;24.920;2023-02-13T14:45:55;5.75;;;1.60;;
70122;SDS011;57489;37.404;24.920;2023-02-13T14:51:23;5.70;;;2.05;;
70122;SDS011;57489;37.404;24.920;2023-02-13T14:56:30;3.73;;;1.47;;
70122;SDS011;57489;37.404;24.920;2023-02-13T15:01:32;4.68;;;1.90;;
70122;SDS011;57489;37.404;24.920;2023-02-13T15:06:37;4.28;;;1.23;;
70122;SDS011;57489;37.404;24.920;2023-02-13T15:11:41;6.47;;;1.70;;
70122;SDS011;57489;37.404;24.920;2023-02-13T15:16:44;5.32;;;1.80;;
70122;SDS011;57489;37.404;24.920;2023-02-13T15:21:57;5.22;;;2.28;;
70122;SDS011;57489;37.404;24.920;2023-02-13T15:27:00;6.17;;;1.80;;
70122;SDS011;57489;37.404;24.920;2023-02-13T15:32:15;5.80;;;1.73;;
70122;SDS011;57489;37.404;24.920;2023-02-13T15:37:21;6.95;;;2.10;;
70122;SDS011;57489;37.404;24.920;2023-02-13T15:42:23;7.68;;;1.67;;
70122;SDS011;57489;37.404;24.920;2023-02-13T15:47:28;4.67;;;1.40;;
70122;SDS011;57489;37.404;24.920;2023-02-13T15:52:33;5.57;;;1.50;;
70122;SDS011;57489;37.404;24.920;2023-02-13T15:57:36;6.70;;;2.00;;
70122;SDS011;57489;37.404;24.920;2023-02-13T16:02:43;6.85;;;1.67;;
70122;SDS011;57489;37.404;24.920;2023-02-13T16:12:50;11.23;;;1.60;;
70122;SDS011;57489;37.404;24.920;2023-02-13T16:17:50;4.78;;;1.33;;
70122;SDS011;57489;37.404;24.920;2023-02-13T16:22:52;4.20;;;1.47;;
70122;SDS011;57489;37.404;24.920;2023-02-13T16:33:28;7.30;;;1.70;;
70122;SDS011;57489;37.404;24.920;2023-02-13T16:38:33;4.32;;;1.38;;
70122;SDS011;57489;37.404;24.920;2023-02-13T16:43:36;3.05;;;1.58;;
70122;SDS011;57489;37.404;24.920;2023-02-13T16:53:56;6.93;;;1.77;;
70122;SDS011;57489;37.404;24.920;2023-02-13T17:04:34;4.10;;;1.30;;
70122;SDS011;57489;37.404;24.920;2023-02-13T17:09:34;6.35;;;1.73;;
70122;SDS011;57489;37.404;24.920;2023-02-13T17:14:35;4.27;;;1.80;;
70122;SDS011;57489;37.404;24.920;2023-02-13T17:19:35;4.57;;;1.53;;
70122;SDS011;57489;37.404;24.920;2023-02-13T17:24:36;4.10;;;1.60;;
70122;SDS011;57489;37.404;24.920;2023-02-13T17:29:36;6.97;;;2.00;;
70122;SDS011;57489;37.404;24.920;2023-02-13T17:34:37;9.67;;;1.87;;
70122;SDS011;57489;37.404;24.920;2023-02-13T17:39:37;6.53;;;1.80;;
70122;SDS011;57489;37.404;24.920;2023-02-13T17:44:37;9.50;;;1.40;;
70122;SDS011;57489;37.404;24.920;2023-02-13T17:49:38;5.50;;;1.90;;
70122;SDS011;57489;37.404;24.920;2023-02-13T17:54:39;7.53;;;1.92;;
70122;SDS011;57489;37.404;24.920;2023-02-13T17:59:39;6.20;;;1.67;;
70122;SDS011;57489;37.404;24.920;2023-02-13T18:04:40;6.77;;;2.00;;
70122;SDS011;57489;37.404;24.920;2023-02-13T18:09:41;7.37;;;1.70;;
70122;SDS011;57489;37.404;24.920;2023-02-13T18:14:42;6.43;;;2.00;;
70122;SDS011;57489;37.404;24.920;2023-02-13T18:19:43;5.27;;;1.90;;
70122;SDS011;57489;37.404;24.920;2023-02-13T18:24:44;7.93;;;2.07;;
70122;SDS011;57489;37.404;24.920;2023-02-13T18:29:44;6.73;;;1.70;;
70122;SDS011;57489;37.404;24.920;2023-02-13T18:34:44;5.33;;;1.90;;
70122;SDS011;57489;37.404;24.920;2023-02-13T18:39:45;5.47;;;1.70;;
70122;SDS011;57489;37.404;24.920;2023-02-13T18:44:48;5.67;;;1.77;;
70122;SDS011;57489;37.404;24.920;2023-02-13T18:49:49;5.82;;;1.60;;
70122;SDS011;57489;37.404;24.920;2023-02-13T18:54:51;6.03;;;1.67;;
70122;SDS011;57489;37.404;24.920;2023-02-13T18:59:51;9.60;;;2.03;;
70122;SDS011;57489;37.404;24.920;2023-02-13T19:04:52;5.28;;;1.70;;
70122;SDS011;57489;37.404;24.920;2023-02-13T19:09:52;4.67;;;1.93;;
70122;SDS011;57489;37.404;24.920;2023-02-13T19:14:53;8.17;;;1.57;;
70122;SDS011;57489;37.404;24.920;2023-02-13T19:19:53;4.73;;;1.60;;
70122;SDS011;57489;37.404;24.920;2023-02-13T19:24:54;3.90;;;1.50;;
70122;SDS011;57489;37.404;24.920;2023-02-13T19:29:54;8.03;;;1.80;;
70122;SDS011;57489;37.404;24.920;2023-02-13T19:34:55;3.70;;;1.10;;
70122;SDS011;57489;37.404;24.920;2023-02-13T19:39:55;8.93;;;1.50;;
70122;SDS011;57489;37.404;24.920;2023-02-13T19:44:55;4.63;;;1.30;;
70122;SDS011;57489;37.404;24.920;2023-02-13T19:49:56;5.47;;;1.40;;
70122;SDS011;57489;37.404;24.920;2023-02-13T19:54:56;5.73;;;1.30;;
70122;SDS011;57489;37.404;24.920;2023-02-13T19:59:57;5.10;;;1.50;;
70122;SDS011;57489;37.404;24.920;2023-02-13T20:04:57;5.07;;;1.23;;
70122;SDS011;57489;37.404;24.920;2023-02-13T20:09:58;6.97;;;1.73;;
70122;SDS011;57489;37.404;24.920;2023-02-13T20:14:58;7.07;;;1.60;;
70122;SDS011;57489;37.404;24.920;2023-02-13T20:19:59;4.53;;;1.10;;
70122;SDS011;57489;37.404;24.920;2023-02-13T20:24:59;3.40;;;1.43;;
70122;SDS011;57489;37.404;24.920;2023-02-13T20:30:00;5.47;;;1.70;;
70122;SDS011;57489;37.404;24.920;2023-02-13T20:35:00;5.60;;;1.80;;
70122;SDS011;57489;37.404;24.920;2023-02-13T20:40:01;4.40;;;1.40;;
70122;SDS011;57489;37.404;24.920;2023-02-13T20:45:01;4.93;;;1.20;;
70122;SDS011;57489;37.404;24.920;2023-02-13T20:50:02;5.18;;;1.40;;
70122;SDS011;57489;37.404;24.920;2023-02-13T20:55:04;3.10;;;1.47;;
70122;SDS011;57489;37.404;24.920;2023-02-13T21:00:05;3.58;;;1.40;;
70122;SDS011;57489;37.404;24.920;2023-02-13T21:05:07;4.90;;;1.37;;
70122;SDS011;57489;37.404;24.920;2023-02-13T21:10:07;5.03;;;1.43;;
70122;SDS011;57489;37.404;24.920;2023-02-13T21:15:08;6.77;;;1.30;;
70122;SDS011;57489;37.404;24.920;2023-02-13T21:20:09;3.83;;;1.17;;
70122;SDS011;57489;37.404;24.920;2023-02-13T21:25:10;2.50;;;1.23;;
70122;SDS011;57489;37.404;24.920;2023-02-13T21:30:11;3.93;;;1.13;;
70122;SDS011;57489;37.404;24.920;2023-02-13T21:35:11;5.13;;;1.42;;
70122;SDS011;57489;37.404;24.920;2023-02-13T21:40:12;4.23;;;1.23;;
70122;SDS011;57489;37.404;24.920;2023-02-13T21:45:12;4.67;;;1.37;;
70122;SDS011;57489;37.404;24.920;2023-02-13T21:50:14;5.37;;;1.60;;
70122;SDS011;57489;37.404;24.920;2023-02-13T21:55:14;4.57;;;1.33;;
70122;SDS011;57489;37.404;24.920;2023-02-13T22:00:15;3.63;;;1.00;;
70122;SDS011;57489;37.404;24.920;2023-02-13T22:05:16;4.70;;;1.67;;
70122;SDS011;57489;37.404;24.920;2023-02-13T22:10:16;2.95;;;1.15;;
70122;SDS011;57489;37.404;24.920;2023-02-13T22:15:17;2.67;;;1.40;;
70122;SDS011;57489;37.404;24.920;2023-02-13T22:20:17;5.30;;;1.67;;
70122;SDS011;57489;37.404;24.920;2023-02-13T22:25:18;5.53;;;1.73;;
70122;SDS011;57489;37.404;24.920;2023-02-13T22:30:19;5.87;;;1.97;;
70122;SDS011;57489;37.404;24.920;2023-02-13T22:35:19;3.70;;;1.33;;
70122;SDS011;57489;37.404;24.920;2023-02-13T22:40:20;3.50;;;1.40;;
70122;SDS011;57489;37.404;24.920;2023-02-13T22:45:20;3.40;;;1.30;;
70122;SDS011;57489;37.404;24.920;2023-02-13T22:50:21;5.17;;;1.70;;
70122;SDS011;57489;37.404;24.920;2023-02-13T22:55:21;3.67;;;1.73;;
70122;SDS011;57489;37.404;24.920;2023-02-13T23:00:22;5.33;;;1.77;;
70122;SDS011;57489;37.404;24.920;2023-02-13T23:05:22;4.53;;;1.23;;
70122;SDS011;57489;37.404;24.920;2023-02-13T23:10:23;3.17;;;1.67;;
70122;SDS011;57489;37.404;24.920;2023-02-13T23:15:23;5.60;;;1.60;;
70122;SDS011;57489;37.404;24.920;2023-02-13T23:20:24;4.30;;;1.70;;
70122;SDS011;57489;37.404;24.920;2023-02-13T23:25:25;3.13;;;1.15;;
70122;SDS011;57489;37.404;24.920;2023-02-13T23:30:26;3.63;;;1.50;;
70122;SDS011;57489;37.404;24.920;2023-02-13T23:35:27;4.32;;;1.77;;
70122;SDS011;57489;37.404;24.920;2023-02-13T23:40:27;4.53;;;1.90;;
70122;SDS011;57489;37.404;24.920;2023-02-13T23:45:28;4.03;;;1.60;;
70122;SDS011;57489;37.404;24.920;2023-02-13T23:50:28;4.13;;;1.30;;
70122;SDS011;57489;37.404;24.920;2023-02-13T23:55:29;2.97;;;1.33;;
